Weather reports worldwide

Advertisment
Southampton oceanography centre, United Kingdom (99079): temperature & dewpoint: 06.12.2019 16:00:00 - 12.12.2019 16:00:00 (GMT)Southampton oceanography centre, United Kingdom (99079): wind speed & gusts: 06.12.2019 16:00:00 - 12.12.2019 16:00:00 (GMT)Southampton oceanography centre, United Kingdom (99079): wind direction: 06.12.2019 16:00:00 - 12.12.2019 16:00:00 (GMT)
Date & Time tt [°C] td [°C] ff [km/h] ff [kn] fx [km/h] fx [kn] dd
12.12.2019 16:00:00 9,2 8,5 18 10 - - W
12.12.2019 15:00:00 9,3 8,5 28 15 - - S
12.12.2019 14:00:00 9,1 8,1 24 13 54 29 S
12.12.2019 13:00:00 9,9 8,6 39 21 65 35 S
12.12.2019 12:00:00 9,7 8,9 35 19 63 34 S
12.12.2019 11:00:00 9,8 9,0 37 20 59 32 SSW
12.12.2019 10:00:00 8,1 7,5 29 16 50 27 S
12.12.2019 09:00:00 8,2 7,3 29 16 - - S
12.12.2019 08:00:00 7,8 6,5 26 14 - - S
12.12.2019 07:00:00 7,1 5,3 16 9 - - S
12.12.2019 06:00:00 6,5 3,5 13 7 - - SSE
12.12.2019 05:00:00 5,9 2,9 9 5 - - S
12.12.2019 04:00:00 4,8 2,6 9 5 - - SSW
12.12.2019 03:00:00 3,5 1,3 4 2 - - WSW
12.12.2019 02:00:00 3,3 1,4 8 4 - - SW
12.12.2019 01:00:00 2,8 1,2 9 5 - - W
12.12.2019 00:00:00 2,4 1,1 5 3 - - WSW
11.12.2019 23:00:00 2,7 1,5 15 8 - - WSW
11.12.2019 22:00:00 3,2 1,7 9 5 - - WSW
11.12.2019 21:00:00 3,8 2,1 16 9 - - W
11.12.2019 20:00:00 4,2 2,6 13 7 - - W
11.12.2019 19:00:00 4,6 2,7 11 6 - - W
11.12.2019 18:00:00 5,3 3,3 11 6 - - W
11.12.2019 17:00:00 6,8 3,5 11 6 - - W
11.12.2019 16:00:00 6,7 3,2 15 8 - - W
11.12.2019 15:00:00 7,4 4,2 16 9 - - W
11.12.2019 14:00:00 7,7 5,2 15 8 - - SW
11.12.2019 13:00:00 7,5 4,9 15 8 - - SW
11.12.2019 12:00:00 8,7 3,8 16 9 - - SSW
11.12.2019 11:00:00 8,3 5,5 13 7 - - SSW
11.12.2019 10:00:00 7,5 5,1 15 8 - - SSW
11.12.2019 09:00:00 6,9 4,4 9 5 - - SW
11.12.2019 08:00:00 6,2 4,1 13 7 - - SW
11.12.2019 07:00:00 6,3 4,1 13 7 - - WSW
11.12.2019 06:00:00 4,9 3,2 5 3 - - W
11.12.2019 05:00:00 5,3 3,2 4 2 - - SSW
11.12.2019 04:00:00 5,9 3,5 16 9 - - SW
11.12.2019 03:00:00 6,1 3,4 11 6 - - SW
11.12.2019 02:00:00 6,6 3,7 16 9 - - WSW
11.12.2019 01:00:00 6,9 4,1 22 12 - - WSW
11.12.2019 00:00:00 7,7 4,8 18 10 - - WSW
10.12.2019 23:00:00 8,2 5,8 13 7 - - WSW
10.12.2019 22:00:00 8,6 6,3 16 9 - - SW
10.12.2019 21:00:00 8,9 6,5 24 13 - - W
10.12.2019 20:00:00 9,7 7,5 28 15 85 46 W
10.12.2019 19:00:00 11,9 11,1 55 30 93 50 SW
10.12.2019 18:00:00 11,6 10,7 48 26 85 46 SSW
10.12.2019 17:00:00 11,4 10,3 48 26 80 43 SSW
10.12.2019 16:00:00 11,1 9,9 48 26 78 42 SSW
10.12.2019 15:00:00 10,5 9,3 46 25 83 45 SSW
10.12.2019 14:00:00 10,6 9,2 46 25 70 38 SSW
10.12.2019 13:00:00 10,2 9,0 35 19 61 33 SSW
10.12.2019 12:00:00 9,6 8,8 39 21 59 32 SSW
10.12.2019 11:00:00 9,6 8,3 35 19 55 30 SSW
10.12.2019 10:00:00 10,0 8,0 35 19 61 33 SSW
10.12.2019 09:00:00 10,4 6,4 39 21 59 32 SSW
10.12.2019 08:00:00 10,2 6,3 35 19 57 31 SSW
10.12.2019 07:00:00 9,8 5,7 29 16 - - SSW
10.12.2019 06:00:00 9,1 5,6 16 9 - - S
10.12.2019 05:00:00 7,3 5,0 13 7 - - SSE
10.12.2019 04:00:00 6,2 4,0 13 7 - - SE
10.12.2019 03:00:00 4,9 3,4 11 6 - - ESE
10.12.2019 02:00:00 3,9 2,2 5 3 - - SE
10.12.2019 01:00:00 3,9 1,9 4 2 - - SSE
10.12.2019 00:00:00 3,5 1,4 5 3 - - WSW
09.12.2019 23:00:00 3,8 1,3 4 2 - - SW
09.12.2019 22:00:00 4,2 1,7 5 3 - - WSW
09.12.2019 21:00:00 4,6 1,6 11 6 - - WSW
09.12.2019 20:00:00 5,8 1,6 8 4 - - W
09.12.2019 19:00:00 6,5 1,4 11 6 - - W
09.12.2019 18:00:00 7,3 1,5 11 6 - - NW
09.12.2019 17:00:00 8,0 1,4 15 8 - - NW
09.12.2019 16:00:00 8,8 1,2 16 9 46 25 NW
09.12.2019 15:00:00 9,8 1,1 26 14 59 32 NW
09.12.2019 14:00:00 10,1 1,2 26 14 61 33 NW
09.12.2019 13:00:00 10,1 1,2 28 15 59 32 NW
09.12.2019 12:00:00 10,0 3,0 21 11 52 28 NW
09.12.2019 11:00:00 10,1 3,5 24 13 54 29 NW
09.12.2019 10:00:00 9,5 3,4 26 14 59 32 NW
09.12.2019 09:00:00 8,8 3,6 24 13 52 28 NW
09.12.2019 08:00:00 9,1 4,1 26 14 63 34 NW
09.12.2019 07:00:00 9,8 4,2 22 12 52 28 NW
09.12.2019 06:00:00 10,1 4,2 31 17 61 33 NW
09.12.2019 05:00:00 9,2 6,3 35 19 76 41 WNW
09.12.2019 04:00:00 9,2 5,6 26 14 61 33 W
09.12.2019 03:00:00 8,1 5,5 26 14 55 30 WSW
09.12.2019 02:00:00 8,4 4,6 29 16 74 40 WSW
09.12.2019 01:00:00 9,3 4,1 42 23 87 47 W
09.12.2019 00:00:00 8,7 5,6 31 17 74 40 W
08.12.2019 23:00:00 8,4 5,9 37 20 57 31 WSW
08.12.2019 22:00:00 8,2 3,9 35 19 52 28 SW
08.12.2019 21:00:00 8,2 3,5 31 17 55 30 WSW
08.12.2019 20:00:00 7,4 3,5 41 22 59 32 WSW
08.12.2019 19:00:00 7,7 3,1 39 21 70 38 W
08.12.2019 18:00:00 8,2 4,0 34 18 48 26 WSW
08.12.2019 17:00:00 8,1 3,5 34 18 70 38 WSW
08.12.2019 16:00:00 8,0 4,4 24 13 52 28 WSW
08.12.2019 15:00:00 8,2 4,9 28 15 85 46 WSW
08.12.2019 14:00:00 10,7 3,3 50 27 68 37 WSW
08.12.2019 13:00:00 11,3 4,9 37 20 67 36 WSW
08.12.2019 12:00:00 11,6 4,1 41 22 72 39 WSW
08.12.2019 11:00:00 11,4 5,0 46 25 68 37 WSW
08.12.2019 10:00:00 10,0 5,2 24 13 - - WSW
08.12.2019 09:00:00 9,8 5,5 26 14 - - WSW
08.12.2019 08:00:00 10,0 6,3 28 15 - - W
08.12.2019 07:00:00 10,3 6,5 26 14 46 25 W
08.12.2019 06:00:00 10,8 7,7 29 16 52 28 W
08.12.2019 05:00:00 11,9 10,8 35 19 54 29 W
08.12.2019 04:00:00 11,9 11,4 39 21 59 32 WSW
08.12.2019 03:00:00 11,1 10,4 39 21 74 40 SW
08.12.2019 02:00:00 10,7 9,8 39 21 61 33 SW
08.12.2019 01:00:00 11,4 8,9 44 24 67 36 SW
08.12.2019 00:00:00 11,4 8,5 48 26 68 37 SW
07.12.2019 23:00:00 11,0 9,0 37 20 61 33 SW
07.12.2019 22:00:00 11,4 8,7 39 21 61 33 SW
07.12.2019 21:00:00 11,2 8,4 39 21 61 33 SW
07.12.2019 20:00:00 10,9 8,0 26 14 46 25 SW
07.12.2019 19:00:00 10,9 8,0 24 13 - - SW
07.12.2019 18:00:00 10,6 7,8 18 10 - - SW
07.12.2019 17:00:00 10,4 7,6 18 10 - - WSW
07.12.2019 16:00:00 10,7 7,0 18 10 - - WSW
07.12.2019 15:00:00 10,9 6,7 21 11 - - SW
07.12.2019 14:00:00 11,0 6,2 22 12 - - WSW
07.12.2019 13:00:00 11,6 6,4 18 10 - - SW
07.12.2019 12:00:00 12,1 6,4 18 10 - - WSW
07.12.2019 11:00:00 10,8 6,5 11 6 - - SW
07.12.2019 10:00:00 9,5 6,6 16 9 - - WSW
07.12.2019 09:00:00 8,7 6,3 9 5 - - SW
07.12.2019 08:00:00 8,8 6,3 8 4 - - WNW
07.12.2019 07:00:00 8,8 6,6 21 11 - - SW
07.12.2019 06:00:00 8,6 6,6 11 6 - - WSW
07.12.2019 05:00:00 8,4 6,7 15 8 - - WSW
07.12.2019 04:00:00 7,6 6,2 15 8 - - WSW
07.12.2019 03:00:00 8,5 6,5 13 7 - - W
07.12.2019 02:00:00 8,7 6,5 13 7 - - W
07.12.2019 01:00:00 8,7 6,3 21 11 - - W
07.12.2019 00:00:00 9,1 6,5 21 11 - - WSW
06.12.2019 23:00:00 9,8 6,1 16 9 - - WSW
06.12.2019 22:00:00 9,7 6,0 18 10 - - W
06.12.2019 21:00:00 10,0 6,2 21 11 - - W
06.12.2019 20:00:00 10,7 6,2 21 11 46 25 W
06.12.2019 19:00:00 11,0 6,7 29 16 50 27 W
06.12.2019 18:00:00 11,4 6,5 28 15 - - W
06.12.2019 17:00:00 11,4 8,8 22 12 50 27 W
06.12.2019 16:00:00 12,1 9,6 21 11 46 25 WSW

tt = temperature
td = dewpoint
ff = wind speed
fx = gusts
dd = wind direction

Next stations